AUY weather

Aneityum Airport
Anatom Island, Tafea, Vanuatu

Public forecast

Using degrees Celsius for public forecast. Weather courtesy of forecast.io.

METAR (pilot weather report)

Retrieved 2019/06/16 21:00 UTC (2 hours ago):

NVVA 162100Z 13004KT 9999 SCT020 BKN300 21/18 Q1016

TAF (pilot weather forecast)

Retrieved 2019/06/16 18:04 UTC (5 hours ago):

TAF NVVA 161600Z 1618/1718 10005KT 9999 SCT020 PROB30 INTER 1618/1624 9000 -SHRA BKN018